createdAt,value
2023-03-01T00:00:12.826Z,1025.90
2023-03-01T00:01:12.829Z,1025.87
2023-03-01T00:02:12.908Z,1025.91
2023-03-01T00:03:12.884Z,1025.87
2023-03-01T00:04:12.848Z,1025.87
2023-03-01T00:05:12.854Z,1025.91
2023-03-01T00:06:12.861Z,1025.92
2023-03-01T00:07:12.859Z,1025.90
2023-03-01T00:08:12.866Z,1025.90
2023-03-01T00:09:12.870Z,1025.89
2023-03-01T00:10:12.879Z,1025.88
2023-03-01T00:11:12.966Z,1025.86
2023-03-01T00:12:12.883Z,1025.84
2023-03-01T00:13:12.889Z,1025.83
2023-03-01T00:14:12.897Z,1025.83
2023-03-01T00:15:12.901Z,1025.81
2023-03-01T00:16:12.997Z,1025.75
2023-03-01T00:17:12.910Z,1025.79
2023-03-01T00:18:12.916Z,1025.77
2023-03-01T00:19:12.920Z,1025.76
2023-03-01T00:20:12.921Z,1025.74
2023-03-01T00:21:12.936Z,1025.77
2023-03-01T00:22:12.935Z,1025.70
2023-03-01T00:23:12.941Z,1025.71
2023-03-01T00:24:12.945Z,1025.71
2023-03-01T00:25:12.955Z,1025.66
2023-03-01T00:26:12.954Z,1025.69
2023-03-01T00:27:12.961Z,1025.66
2023-03-01T00:28:12.967Z,1025.64
2023-03-01T00:29:12.979Z,1025.68
2023-03-01T00:30:12.976Z,1025.69
2023-03-01T00:31:13.053Z,1025.66
2023-03-01T00:32:13.002Z,1025.67
2023-03-01T00:33:12.992Z,1025.69
2023-03-01T00:34:12.993Z,1025.67
2023-03-01T00:35:13.002Z,1025.71
2023-03-01T00:36:13.010Z,1025.69
2023-03-01T00:37:13.012Z,1025.68
2023-03-01T00:38:13.016Z,1025.66
2023-03-01T00:39:13.022Z,1025.63
2023-03-01T00:40:13.028Z,1025.62
2023-03-01T00:41:13.035Z,1025.59
2023-03-01T00:42:13.036Z,1025.60
2023-03-01T00:43:13.049Z,1025.55
2023-03-01T00:44:13.049Z,1025.56
2023-03-01T00:45:13.057Z,1025.57
2023-03-01T00:46:13.108Z,1025.60
2023-03-01T00:47:13.061Z,1025.54
2023-03-01T00:48:13.065Z,1025.57
2023-03-01T00:49:13.073Z,1025.54
2023-03-01T00:50:13.090Z,1025.50
2023-03-01T00:51:13.085Z,1025.54
2023-03-01T00:52:13.091Z,1025.51
2023-03-01T00:53:13.111Z,1025.53
2023-03-01T00:54:13.107Z,1025.52
2023-03-01T00:55:13.105Z,1025.50
2023-03-01T00:56:13.112Z,1025.51
2023-03-01T00:57:13.110Z,1025.50
2023-03-01T00:58:13.130Z,1025.50
2023-03-01T00:59:13.121Z,1025.52
2023-03-01T01:00:13.141Z,1025.52
2023-03-01T01:01:13.145Z,1025.52
2023-03-01T01:02:13.173Z,1025.55
2023-03-01T01:03:13.144Z,1025.57
2023-03-01T01:04:13.169Z,1025.56
2023-03-01T01:05:13.158Z,1025.59
2023-03-01T01:06:13.171Z,1025.57
2023-03-01T01:07:13.166Z,1025.53
2023-03-01T01:08:13.170Z,1025.50
2023-03-01T01:09:13.167Z,1025.46
2023-03-01T01:10:13.170Z,1025.42
2023-03-01T01:11:13.176Z,1025.39
2023-03-01T01:12:13.180Z,1025.47
2023-03-01T01:13:13.190Z,1025.41
2023-03-01T01:14:13.193Z,1025.43
2023-03-01T01:15:13.191Z,1025.44
2023-03-01T01:16:13.244Z,1025.47
2023-03-01T01:17:13.200Z,1025.47
2023-03-01T01:18:13.208Z,1025.46
2023-03-01T01:19:13.210Z,1025.42
2023-03-01T01:20:13.214Z,1025.39
2023-03-01T01:21:13.230Z,1025.37
2023-03-01T01:22:13.228Z,1025.37
2023-03-01T01:23:13.234Z,1025.29
2023-03-01T01:24:13.256Z,1025.32
2023-03-01T01:25:13.247Z,1025.32
2023-03-01T01:26:13.254Z,1025.25
2023-03-01T01:27:13.251Z,1025.28
2023-03-01T01:28:13.252Z,1025.25
2023-03-01T01:29:13.260Z,1025.26
2023-03-01T01:30:13.262Z,1025.24
2023-03-01T01:31:13.303Z,1025.27
2023-03-01T01:32:13.307Z,1025.20
2023-03-01T01:33:13.277Z,1025.18
2023-03-01T01:34:13.281Z,1025.15
2023-03-01T01:35:13.287Z,1025.15
2023-03-01T01:36:13.292Z,1025.12
2023-03-01T01:37:13.294Z,1025.14
2023-03-01T01:38:13.300Z,1025.11
2023-03-01T01:39:13.302Z,1025.09
2023-03-01T01:40:13.322Z,1025.09
2023-03-01T01:41:13.319Z,1025.11
2023-03-01T01:42:13.318Z,1025.11
2023-03-01T01:43:13.322Z,1025.04
2023-03-01T01:44:13.324Z,1025.03
2023-03-01T01:45:13.331Z,1025.02
2023-03-01T01:46:13.357Z,1025.01
2023-03-01T01:47:13.342Z,1025.02
2023-03-01T01:48:13.345Z,1025.02
2023-03-01T01:49:13.352Z,1025.01
2023-03-01T01:50:13.353Z,1025.03
2023-03-01T01:51:13.356Z,1025.03
2023-03-01T01:52:13.376Z,1025.03
2023-03-01T01:53:13.366Z,1025.05
2023-03-01T01:54:13.376Z,1025.08
2023-03-01T01:55:13.377Z,1025.08
2023-03-01T01:56:13.400Z,1025.07
2023-03-01T01:57:13.386Z,1025.07
2023-03-01T01:58:13.389Z,1025.13
2023-03-01T01:59:13.400Z,1025.14
2023-03-01T02:00:13.398Z,1025.15
2023-03-01T02:01:13.403Z,1025.18
2023-03-01T02:02:13.408Z,1025.15
2023-03-01T02:03:13.614Z,1025.12
2023-03-01T02:04:13.416Z,1025.13
2023-03-01T02:05:13.426Z,1025.15
2023-03-01T02:06:13.426Z,1025.15
2023-03-01T02:07:13.429Z,1025.17
2023-03-01T02:08:13.433Z,1025.18
2023-03-01T02:09:13.440Z,1025.17
2023-03-01T02:10:13.450Z,1025.22
2023-03-01T02:11:13.449Z,1025.25
2023-03-01T02:12:13.451Z,1025.22
2023-03-01T02:13:13.459Z,1025.20
2023-03-01T02:14:13.461Z,1025.21
2023-03-01T02:15:13.467Z,1025.18
2023-03-01T02:16:13.516Z,1025.12
2023-03-01T02:17:13.476Z,1025.09
2023-03-01T02:18:13.481Z,1025.13
2023-03-01T02:19:13.485Z,1025.10
2023-03-01T02:20:13.488Z,1025.11
2023-03-01T02:21:13.493Z,1025.11
2023-03-01T02:22:13.548Z,1025.13
2023-03-01T02:23:13.506Z,1025.13
2023-03-01T02:24:13.507Z,1025.13
2023-03-01T02:25:13.520Z,1025.16
2023-03-01T02:26:13.521Z,1025.14
2023-03-01T02:27:13.521Z,1025.12
2023-03-01T02:28:13.528Z,1025.12
2023-03-01T02:29:13.537Z,1025.15
2023-03-01T02:30:13.542Z,1025.15
2023-03-01T02:31:13.560Z,1025.13
2023-03-01T02:32:13.562Z,1025.13
2023-03-01T02:33:13.546Z,1025.12
2023-03-01T02:34:13.550Z,1025.17
2023-03-01T02:35:13.552Z,1025.17
2023-03-01T02:36:13.565Z,1025.21
2023-03-01T02:37:13.584Z,1025.20
2023-03-01T02:38:13.570Z,1025.17
2023-03-01T02:39:13.584Z,1025.17
2023-03-01T02:40:13.578Z,1025.14
2023-03-01T02:41:13.582Z,1025.15
2023-03-01T02:42:13.587Z,1025.16
2023-03-01T02:43:13.591Z,1025.16
2023-03-01T02:44:13.604Z,1025.15
2023-03-01T02:45:13.609Z,1025.16
2023-03-01T02:46:13.627Z,1025.23
2023-03-01T02:47:13.612Z,1025.18
2023-03-01T02:48:13.614Z,1025.20
2023-03-01T02:49:13.618Z,1025.19
2023-03-01T02:50:13.624Z,1025.18
2023-03-01T02:51:13.628Z,1025.20
2023-03-01T02:52:13.634Z,1025.18
2023-03-01T02:53:13.638Z,1025.20
2023-03-01T02:54:13.641Z,1025.20
2023-03-01T02:55:13.659Z,1025.17
2023-03-01T02:56:13.652Z,1025.17
2023-03-01T02:57:13.652Z,1025.16
2023-03-01T02:58:13.657Z,1025.13
2023-03-01T02:59:13.661Z,1025.11
2023-03-01T03:00:13.664Z,1025.07
2023-03-01T03:01:13.701Z,1025.05
2023-03-01T03:02:13.678Z,1025.00
2023-03-01T03:03:13.679Z,1024.97
2023-03-01T03:04:13.691Z,1024.94
2023-03-01T03:05:13.686Z,1024.95
2023-03-01T03:06:13.698Z,1024.91
2023-03-01T03:07:13.698Z,1024.97
2023-03-01T03:08:13.756Z,1024.95
2023-03-01T03:09:15.813Z,1024.91
2023-03-01T03:10:13.714Z,1024.95
2023-03-01T03:11:13.713Z,1024.89
2023-03-01T03:12:13.716Z,1024.93
2023-03-01T03:13:13.721Z,1024.88
2023-03-01T03:14:13.729Z,1024.92
2023-03-01T03:15:13.872Z,1024.96
2023-03-01T03:16:13.756Z,1024.95
2023-03-01T03:17:13.738Z,1024.94
2023-03-01T03:18:13.770Z,1024.96
2023-03-01T03:19:13.747Z,1024.92
2023-03-01T03:20:13.752Z,1024.93
2023-03-01T03:21:13.754Z,1024.95
2023-03-01T03:22:13.758Z,1024.91
2023-03-01T03:23:13.788Z,1024.93
2023-03-01T03:24:13.767Z,1024.97
2023-03-01T03:25:13.774Z,1024.99
2023-03-01T03:26:13.774Z,1024.94
2023-03-01T03:27:13.778Z,1025.00
2023-03-01T03:28:13.781Z,1024.98
2023-03-01T03:29:13.788Z,1024.97
2023-03-01T03:30:13.794Z,1024.94
2023-03-01T03:31:13.837Z,1024.93
2023-03-01T03:32:13.824Z,1024.92
2023-03-01T03:33:14.026Z,1024.87
2023-03-01T03:34:13.808Z,1024.86
2023-03-01T03:35:13.812Z,1024.83
2023-03-01T03:36:13.831Z,1024.81
2023-03-01T03:37:13.823Z,1024.80
2023-03-01T03:38:13.824Z,1024.81
2023-03-01T03:39:13.829Z,1024.79
2023-03-01T03:40:13.832Z,1024.79
2023-03-01T03:41:13.841Z,1024.76
2023-03-01T03:42:13.842Z,1024.76
2023-03-01T03:43:13.849Z,1024.78
2023-03-01T03:44:13.847Z,1024.77
2023-03-01T03:45:13.852Z,1024.79
2023-03-01T03:46:13.925Z,1024.79
2023-03-01T03:47:13.862Z,1024.77
2023-03-01T03:48:13.872Z,1024.77
2023-03-01T03:49:13.871Z,1024.75
2023-03-01T03:50:13.874Z,1024.73
2023-03-01T03:51:13.878Z,1024.73
2023-03-01T03:52:13.879Z,1024.71
2023-03-01T03:53:13.893Z,1024.68
2023-03-01T03:54:13.891Z,1024.67
2023-03-01T03:55:13.912Z,1024.66
2023-03-01T03:56:13.919Z,1024.64
2023-03-01T03:57:13.901Z,1024.63
2023-03-01T03:58:13.910Z,1024.63
2023-03-01T03:59:13.912Z,1024.63
2023-03-01T04:00:13.979Z,1024.63
2023-03-01T04:01:13.954Z,1024.58
2023-03-01T04:02:13.923Z,1024.56
2023-03-01T04:03:13.927Z,1024.55
2023-03-01T04:04:13.935Z,1024.52
2023-03-01T04:05:13.936Z,1024.54
2023-03-01T04:06:13.964Z,1024.55
2023-03-01T04:07:13.943Z,1024.55
2023-03-01T04:08:13.949Z,1024.51
2023-03-01T04:09:13.953Z,1024.54
2023-03-01T04:10:13.969Z,1024.53
2023-03-01T04:11:13.960Z,1024.59
2023-03-01T04:12:13.964Z,1024.52
2023-03-01T04:13:13.969Z,1024.55
2023-03-01T04:14:13.972Z,1024.53
2023-03-01T04:15:14.007Z,1024.54
2023-03-01T04:16:14.037Z,1024.59
2023-03-01T04:17:13.983Z,1024.60
2023-03-01T04:18:13.993Z,1024.59
2023-03-01T04:19:13.993Z,1024.59
2023-03-01T04:20:14.008Z,1024.59
2023-03-01T04:21:14.004Z,1024.61
2023-03-01T04:22:14.007Z,1024.63
2023-03-01T04:23:14.055Z,1024.63
2023-03-01T04:24:14.025Z,1024.64
2023-03-01T04:25:14.018Z,1024.63
2023-03-01T04:26:14.023Z,1024.63
2023-03-01T04:27:14.027Z,1024.63
2023-03-01T04:28:14.043Z,1024.62
2023-03-01T04:29:14.034Z,1024.61
2023-03-01T04:30:14.038Z,1024.65
2023-03-01T04:31:14.337Z,1024.63
2023-03-01T04:32:14.128Z,1024.62
2023-03-01T04:33:14.046Z,1024.60
2023-03-01T04:34:14.051Z,1024.60
2023-03-01T04:35:14.068Z,1024.57
2023-03-01T04:36:14.176Z,1024.54
2023-03-01T04:37:14.063Z,1024.55
2023-03-01T04:38:14.069Z,1024.54
2023-03-01T04:39:14.078Z,1024.53
2023-03-01T04:40:14.076Z,1024.54
2023-03-01T04:41:14.085Z,1024.54
2023-03-01T04:42:14.087Z,1024.53
2023-03-01T04:43:14.086Z,1024.53
2023-03-01T04:44:14.092Z,1024.51
2023-03-01T04:45:14.262Z,1024.51
2023-03-01T04:46:15.477Z,1024.56
2023-03-01T04:47:14.104Z,1024.48
2023-03-01T04:48:14.111Z,1024.51
2023-03-01T04:49:14.110Z,1024.48
2023-03-01T04:50:14.114Z,1024.46
2023-03-01T04:51:14.124Z,1024.52
2023-03-01T04:52:14.130Z,1024.45
2023-03-01T04:53:14.130Z,1024.46
2023-03-01T04:54:14.137Z,1024.47
2023-03-01T04:55:14.136Z,1024.45
2023-03-01T04:56:14.139Z,1024.48
2023-03-01T04:57:14.145Z,1024.47
2023-03-01T04:58:14.147Z,1024.48
2023-03-01T04:59:14.153Z,1024.51
2023-03-01T05:00:14.153Z,1024.50
2023-03-01T05:01:14.158Z,1024.55
2023-03-01T05:02:14.161Z,1024.51
2023-03-01T05:03:14.166Z,1024.51
2023-03-01T05:04:14.205Z,1024.48
2023-03-01T05:05:14.173Z,1024.54
2023-03-01T05:06:14.193Z,1024.49
2023-03-01T05:07:14.186Z,1024.49
2023-03-01T05:08:14.187Z,1024.50
2023-03-01T05:09:14.188Z,1024.50
2023-03-01T05:10:14.193Z,1024.48
2023-03-01T05:11:14.197Z,1024.48
2023-03-01T05:12:14.204Z,1024.47
2023-03-01T05:13:14.202Z,1024.46
2023-03-01T05:14:14.209Z,1024.49
2023-03-01T05:15:14.213Z,1024.46
2023-03-01T05:16:14.268Z,1024.46
2023-03-01T05:17:14.224Z,1024.42
2023-03-01T05:18:14.235Z,1024.44
2023-03-01T05:19:14.228Z,1024.44
2023-03-01T05:20:14.235Z,1024.44
2023-03-01T05:21:14.237Z,1024.41
2023-03-01T05:22:14.239Z,1024.49
2023-03-01T05:23:14.267Z,1024.44
2023-03-01T05:24:14.254Z,1024.45
2023-03-01T05:25:14.255Z,1024.46
2023-03-01T05:26:27.893Z,1024.47
2023-03-01T05:27:14.973Z,1024.49
2023-03-01T05:28:14.281Z,1024.50
2023-03-01T05:29:14.264Z,1024.50
2023-03-01T05:30:14.332Z,1024.51
2023-03-01T05:31:14.347Z,1024.49
2023-03-01T05:32:14.307Z,1024.46
2023-03-01T05:33:14.677Z,1024.46
2023-03-01T05:34:14.283Z,1024.43
2023-03-01T05:35:14.286Z,1024.45
2023-03-01T05:36:14.294Z,1024.46
2023-03-01T05:37:14.295Z,1024.42
2023-03-01T05:38:14.373Z,1024.38
2023-03-01T05:39:14.302Z,1024.38
2023-03-01T05:40:14.305Z,1024.41
2023-03-01T05:41:14.310Z,1024.41
2023-03-01T05:42:14.315Z,1024.38
2023-03-01T05:43:14.319Z,1024.36
2023-03-01T05:44:14.321Z,1024.38
2023-03-01T05:45:14.330Z,1024.37
2023-03-01T05:46:14.500Z,1024.39
2023-03-01T05:47:14.336Z,1024.39
2023-03-01T05:48:14.334Z,1024.35
2023-03-01T05:49:14.342Z,1024.37
2023-03-01T05:50:14.348Z,1024.36
2023-03-01T05:51:14.356Z,1024.33
2023-03-01T05:52:14.684Z,1024.39
2023-03-01T05:53:14.365Z,1024.36
2023-03-01T05:54:14.358Z,1024.37
2023-03-01T05:55:14.364Z,1024.42
2023-03-01T05:56:14.382Z,1024.41
2023-03-01T05:57:14.373Z,1024.40
2023-03-01T05:58:14.374Z,1024.39
2023-03-01T05:59:14.380Z,1024.41
2023-03-01T06:00:14.386Z,1024.45
2023-03-01T06:01:14.409Z,1024.46
2023-03-01T06:02:14.391Z,1024.45
2023-03-01T06:03:14.399Z,1024.47
2023-03-01T06:04:14.455Z,1024.43
2023-03-01T06:05:14.468Z,1024.46
2023-03-01T06:06:14.409Z,1024.45
2023-03-01T06:07:14.412Z,1024.48
2023-03-01T06:08:14.424Z,1024.48
2023-03-01T06:09:14.420Z,1024.47
2023-03-01T06:10:14.422Z,1024.42
2023-03-01T06:11:14.431Z,1024.40
2023-03-01T06:12:14.436Z,1024.40
2023-03-01T06:13:14.471Z,1024.39
2023-03-01T06:14:14.456Z,1024.41
2023-03-01T06:15:14.442Z,1024.41
2023-03-01T06:16:14.525Z,1024.37
2023-03-01T06:17:14.450Z,1024.39
2023-03-01T06:18:14.465Z,1024.37
2023-03-01T06:19:14.455Z,1024.40
2023-03-01T06:20:14.462Z,1024.38
2023-03-01T06:21:14.467Z,1024.35
2023-03-01T06:22:14.482Z,1024.38
2023-03-01T06:23:14.474Z,1024.38
2023-03-01T06:24:14.495Z,1024.39
2023-03-01T06:25:14.488Z,1024.38
2023-03-01T06:26:14.484Z,1024.40
2023-03-01T06:27:14.488Z,1024.42
2023-03-01T06:28:14.494Z,1024.43
2023-03-01T06:29:14.499Z,1024.41
2023-03-01T06:30:14.508Z,1024.40
2023-03-01T06:31:14.556Z,1024.41
2023-03-01T06:32:14.533Z,1024.40
2023-03-01T06:33:14.517Z,1024.44
2023-03-01T06:34:14.517Z,1024.43
2023-03-01T06:35:14.524Z,1024.40
2023-03-01T06:36:14.525Z,1024.43
2023-03-01T06:37:14.535Z,1024.44
2023-03-01T06:38:14.534Z,1024.42
2023-03-01T06:39:14.536Z,1024.47
2023-03-01T06:40:14.541Z,1024.45
2023-03-01T06:41:14.545Z,1024.46
2023-03-01T06:42:14.550Z,1024.41
2023-03-01T06:43:14.553Z,1024.46
2023-03-01T06:44:14.556Z,1024.44
2023-03-01T06:45:14.561Z,1024.45
2023-03-01T06:46:14.613Z,1024.44
2023-03-01T06:47:14.568Z,1024.42
2023-03-01T06:48:14.575Z,1024.47
2023-03-01T06:49:14.581Z,1024.42
2023-03-01T06:50:14.618Z,1024.47
2023-03-01T06:51:14.601Z,1024.50
2023-03-01T06:52:14.591Z,1024.49
2023-03-01T06:53:14.598Z,1024.48
2023-03-01T06:54:14.599Z,1024.48
2023-03-01T06:55:14.606Z,1024.53
2023-03-01T06:56:14.607Z,1024.51
2023-03-01T06:57:14.610Z,1024.51
2023-03-01T06:58:14.634Z,1024.47
2023-03-01T06:59:14.618Z,1024.45
2023-03-01T07:00:14.619Z,1024.45
2023-03-01T07:01:14.623Z,1024.43
2023-03-01T07:02:14.629Z,1024.46
2023-03-01T07:03:14.632Z,1024.47
2023-03-01T07:04:14.654Z,1024.46
2023-03-01T07:05:14.646Z,1024.45
2023-03-01T07:06:14.647Z,1024.51
2023-03-01T07:07:14.651Z,1024.51
2023-03-01T07:08:14.656Z,1024.53
2023-03-01T07:09:14.664Z,1024.53
2023-03-01T07:10:14.668Z,1024.54
2023-03-01T07:11:14.673Z,1024.52
2023-03-01T07:12:14.684Z,1024.53
2023-03-01T07:13:14.685Z,1024.56
2023-03-01T07:14:14.687Z,1024.57
2023-03-01T07:15:14.691Z,1024.57
2023-03-01T07:16:14.773Z,1024.58
2023-03-01T07:17:14.707Z,1024.56
2023-03-01T07:18:14.705Z,1024.62
2023-03-01T07:19:14.717Z,1024.62
2023-03-01T07:20:14.715Z,1024.64
2023-03-01T07:21:14.722Z,1024.65
2023-03-01T07:22:14.729Z,1024.66
2023-03-01T07:23:14.735Z,1024.65
2023-03-01T07:24:14.734Z,1024.66
2023-03-01T07:25:14.738Z,1024.68
2023-03-01T07:26:14.752Z,1024.66
2023-03-01T07:27:14.755Z,1024.64
2023-03-01T07:28:14.755Z,1024.61
2023-03-01T07:29:14.759Z,1024.67
2023-03-01T07:30:14.768Z,1024.65
2023-03-01T07:31:14.771Z,1024.63
2023-03-01T07:32:14.887Z,1024.64
2023-03-01T07:33:14.824Z,1024.60
2023-03-01T07:34:14.788Z,1024.65
2023-03-01T07:35:14.794Z,1024.67
2023-03-01T07:36:14.813Z,1024.69
2023-03-01T07:37:14.799Z,1024.68
2023-03-01T07:38:14.808Z,1024.63
2023-03-01T07:39:14.820Z,1024.56
2023-03-01T07:40:14.820Z,1024.60
2023-03-01T07:41:14.834Z,1024.56
2023-03-01T07:42:14.847Z,1024.62
2023-03-01T07:43:14.841Z,1024.60
2023-03-01T07:44:14.843Z,1024.59
2023-03-01T07:45:14.857Z,1024.55
2023-03-01T07:46:14.853Z,1024.58
2023-03-01T07:47:14.859Z,1024.58
2023-03-01T07:48:14.865Z,1024.63
2023-03-01T07:49:14.872Z,1024.64
2023-03-01T07:50:14.907Z,1024.62
2023-03-01T07:51:14.885Z,1024.61
2023-03-01T07:52:14.898Z,1024.62
2023-03-01T07:53:14.899Z,1024.62
2023-03-01T07:54:14.909Z,1024.65
2023-03-01T07:55:14.915Z,1024.63
2023-03-01T07:56:14.909Z,1024.66
2023-03-01T07:57:14.945Z,1024.67
2023-03-01T07:58:14.923Z,1024.62
2023-03-01T07:59:14.933Z,1024.60
2023-03-01T08:00:14.945Z,1024.62
2023-03-01T08:01:14.941Z,1024.56
2023-03-01T08:02:15.040Z,1024.55
2023-03-01T08:04:14.958Z,1024.55
2023-03-01T08:05:14.964Z,1024.52
2023-03-01T08:06:14.969Z,1024.54
2023-03-01T08:07:14.975Z,1024.57
2023-03-01T08:08:14.981Z,1024.58
2023-03-01T08:09:14.986Z,1024.58
2023-03-01T08:10:14.998Z,1024.58
2023-03-01T08:11:15.019Z,1024.58
2023-03-01T08:12:15.013Z,1024.58
2023-03-01T08:13:15.013Z,1024.56
2023-03-01T08:14:15.026Z,1024.50
2023-03-01T08:15:15.023Z,1024.51
2023-03-01T08:16:15.058Z,1024.51
2023-03-01T08:17:15.035Z,1024.52
2023-03-01T08:18:15.042Z,1024.52
2023-03-01T08:19:15.052Z,1024.52
2023-03-01T08:20:15.056Z,1024.53
2023-03-01T08:21:15.064Z,1024.45
2023-03-01T08:22:15.079Z,1024.47
2023-03-01T08:23:15.078Z,1024.43
2023-03-01T08:24:15.110Z,1024.48
2023-03-01T08:25:15.092Z,1024.50
2023-03-01T08:26:15.096Z,1024.46
2023-03-01T08:27:15.105Z,1024.45
2023-03-01T08:28:15.105Z,1024.41
2023-03-01T08:29:15.114Z,1024.40
2023-03-01T08:30:15.126Z,1024.35
2023-03-01T08:31:15.217Z,1024.43
2023-03-01T08:32:15.224Z,1024.37
2023-03-01T08:33:15.195Z,1024.40
2023-03-01T08:34:15.160Z,1024.40
2023-03-01T08:35:15.157Z,1024.40
2023-03-01T08:36:15.161Z,1024.35
2023-03-01T08:37:15.174Z,1024.37
2023-03-01T08:38:15.182Z,1024.38
2023-03-01T08:39:15.188Z,1024.39
2023-03-01T08:40:15.191Z,1024.39
2023-03-01T08:41:15.199Z,1024.36
2023-03-01T08:42:15.212Z,1024.33
2023-03-01T08:43:15.214Z,1024.34
2023-03-01T08:44:15.285Z,1024.35
2023-03-01T08:45:15.299Z,1024.33
2023-03-01T08:46:15.319Z,1024.33
2023-03-01T08:47:15.245Z,1024.36
2023-03-01T08:48:15.250Z,1024.37
2023-03-01T08:49:15.259Z,1024.33
2023-03-01T08:50:15.263Z,1024.37
2023-03-01T08:51:16.130Z,1024.33
2023-03-01T08:52:15.382Z,1024.37
2023-03-01T08:53:15.287Z,1024.36
2023-03-01T08:54:15.296Z,1024.33
2023-03-01T08:55:15.304Z,1024.32
2023-03-01T08:56:15.309Z,1024.31
2023-03-01T08:57:15.318Z,1024.31
2023-03-01T08:58:15.326Z,1024.31
2023-03-01T08:59:15.332Z,1024.28
2023-03-01T09:00:15.339Z,1024.30
2023-03-01T09:01:15.352Z,1024.28
2023-03-01T09:02:15.360Z,1024.33
2023-03-01T09:03:15.367Z,1024.28
2023-03-01T09:04:15.375Z,1024.27
2023-03-01T09:05:15.383Z,1024.29
2023-03-01T09:06:15.393Z,1024.28
2023-03-01T09:07:15.395Z,1024.29
2023-03-01T09:08:15.423Z,1024.29
2023-03-01T09:09:15.411Z,1024.28
2023-03-01T09:10:15.421Z,1024.25
2023-03-01T09:11:15.425Z,1024.25
2023-03-01T09:12:15.437Z,1024.26
2023-03-01T09:13:15.444Z,1024.23
2023-03-01T09:14:15.519Z,1024.22
2023-03-01T09:15:15.462Z,1024.20
2023-03-01T09:16:15.530Z,1024.17
2023-03-01T09:17:15.479Z,1024.17
2023-03-01T09:18:15.487Z,1024.14
2023-03-01T09:19:15.495Z,1024.14
2023-03-01T09:20:15.506Z,1024.13
2023-03-01T09:21:15.512Z,1024.13
2023-03-01T09:22:15.517Z,1024.12
2023-03-01T09:23:15.526Z,1024.15
2023-03-01T09:24:15.620Z,1024.09
2023-03-01T09:25:15.545Z,1024.12
2023-03-01T09:26:15.554Z,1024.12
2023-03-01T09:27:15.566Z,1024.10
2023-03-01T09:28:28.923Z,1024.09
2023-03-01T09:29:15.576Z,1024.09
2023-03-01T09:30:15.584Z,1024.11
2023-03-01T09:31:15.680Z,1024.13
2023-03-01T09:32:15.700Z,1024.08
2023-03-01T09:33:15.630Z,1024.18
2023-03-01T09:34:15.618Z,1024.13
2023-03-01T09:35:15.635Z,1024.12
2023-03-01T09:36:15.639Z,1024.11
2023-03-01T09:37:15.645Z,1024.12
2023-03-01T09:38:15.654Z,1024.15
2023-03-01T09:39:15.666Z,1024.11
2023-03-01T09:40:15.670Z,1024.08
2023-03-01T09:41:15.679Z,1024.07
2023-03-01T09:42:15.689Z,1024.05
2023-03-01T09:43:15.696Z,1024.09
2023-03-01T09:44:15.706Z,1024.04
2023-03-01T09:45:15.715Z,1024.03
2023-03-01T09:46:15.773Z,1024.03
2023-03-01T09:47:15.736Z,1024.03
2023-03-01T09:48:15.745Z,1024.06
2023-03-01T09:49:15.752Z,1024.08
2023-03-01T09:50:15.797Z,1024.06
2023-03-01T09:51:15.765Z,1024.05
2023-03-01T09:52:15.775Z,1024.06
2023-03-01T09:53:15.783Z,1024.07
2023-03-01T09:54:15.798Z,1024.06
2023-03-01T09:55:15.802Z,1024.05
2023-03-01T09:56:15.812Z,1024.06
2023-03-01T09:57:15.823Z,1024.03
2023-03-01T09:58:15.832Z,1024.04
2023-03-01T09:59:15.851Z,1024.10
2023-03-01T10:00:15.851Z,1024.10
2023-03-01T10:01:15.868Z,1024.09
2023-03-01T10:02:15.865Z,1024.06
2023-03-01T10:03:15.874Z,1024.04
2023-03-01T10:04:15.918Z,1024.10
2023-03-01T10:05:15.928Z,1024.12
2023-03-01T10:06:27.536Z,1024.11
2023-03-01T10:07:15.912Z,1024.14
2023-03-01T10:08:15.919Z,1024.13
2023-03-01T10:09:15.934Z,1024.10
2023-03-01T10:10:15.940Z,1024.10
2023-03-01T10:11:15.948Z,1024.05
2023-03-01T10:12:15.957Z,1024.06
2023-03-01T10:13:15.970Z,1024.11
2023-03-01T10:14:15.977Z,1024.15
2023-03-01T10:15:15.988Z,1024.14
2023-03-01T10:16:16.110Z,1024.14
2023-03-01T10:17:16.002Z,1024.17
2023-03-01T10:18:16.012Z,1024.13
2023-03-01T10:19:16.021Z,1024.14
2023-03-01T10:20:16.055Z,1024.18
2023-03-01T10:21:16.045Z,1024.17
2023-03-01T10:22:16.052Z,1024.14
2023-03-01T10:23:16.063Z,1024.15
2023-03-01T10:24:16.073Z,1024.12
2023-03-01T10:25:16.080Z,1024.11
2023-03-01T10:26:16.106Z,1024.13
2023-03-01T10:27:16.099Z,1024.08
2023-03-01T10:28:16.115Z,1024.10
2023-03-01T10:29:16.120Z,1024.06
2023-03-01T10:30:16.127Z,1024.09
2023-03-01T10:31:16.186Z,1024.09
2023-03-01T10:32:16.205Z,1024.07
2023-03-01T10:33:16.164Z,1024.04
2023-03-01T10:34:16.171Z,1024.03
2023-03-01T10:35:16.174Z,1024.03
2023-03-01T10:36:16.187Z,1023.96
2023-03-01T10:37:16.208Z,1023.96
2023-03-01T10:38:16.202Z,1023.98
2023-03-01T10:39:16.226Z,1023.94
2023-03-01T10:40:16.235Z,1023.94
2023-03-01T10:41:16.233Z,1023.93
2023-03-01T10:42:16.250Z,1023.94
2023-03-01T10:43:16.255Z,1023.93
2023-03-01T10:44:16.262Z,1023.89
2023-03-01T10:45:16.271Z,1023.93
2023-03-01T10:46:16.316Z,1023.90
2023-03-01T10:47:16.296Z,1023.88
2023-03-01T10:48:16.302Z,1023.90
2023-03-01T10:49:16.323Z,1023.91
2023-03-01T10:50:16.323Z,1023.84
2023-03-01T10:51:16.335Z,1023.85
2023-03-01T10:52:16.347Z,1023.84
2023-03-01T10:53:16.353Z,1023.83
2023-03-01T10:54:16.362Z,1023.85
2023-03-01T10:55:16.377Z,1023.83
2023-03-01T10:56:16.389Z,1023.85
2023-03-01T10:57:16.394Z,1023.77
2023-03-01T10:58:16.412Z,1023.83
2023-03-01T10:59:16.418Z,1023.79
2023-03-01T11:00:16.522Z,1023.82
2023-03-01T11:01:16.500Z,1023.82
2023-03-01T11:02:24.494Z,1023.80
2023-03-01T11:03:16.457Z,1023.82
2023-03-01T11:04:16.498Z,1023.75
2023-03-01T11:05:16.474Z,1023.77
2023-03-01T11:06:16.486Z,1023.75
2023-03-01T11:07:16.494Z,1023.73
2023-03-01T11:08:16.504Z,1023.69
2023-03-01T11:09:16.513Z,1023.67
2023-03-01T11:10:16.573Z,1023.68
2023-03-01T11:11:16.537Z,1023.63
2023-03-01T11:12:16.562Z,1023.60
2023-03-01T11:13:16.561Z,1023.58
2023-03-01T11:14:26.414Z,1023.55
2023-03-01T11:15:16.578Z,1023.52
2023-03-01T11:16:16.615Z,1023.50
2023-03-01T11:17:16.603Z,1023.52
2023-03-01T11:18:16.607Z,1023.50
2023-03-01T11:19:16.622Z,1023.51
2023-03-01T11:20:16.665Z,1023.50
2023-03-01T11:21:16.672Z,1023.48
2023-03-01T11:22:16.656Z,1023.50
2023-03-01T11:23:16.664Z,1023.47
2023-03-01T11:24:16.672Z,1023.47
2023-03-01T11:25:16.688Z,1023.51
2023-03-01T11:26:16.712Z,1023.47
2023-03-01T11:27:16.712Z,1023.39
2023-03-01T11:28:16.711Z,1023.40
2023-03-01T11:29:16.721Z,1023.42
2023-03-01T11:30:16.737Z,1023.42
2023-03-01T11:31:16.825Z,1023.45
2023-03-01T11:32:16.847Z,1023.43
2023-03-01T11:33:16.826Z,1023.43
2023-03-01T11:34:16.773Z,1023.38
2023-03-01T11:35:16.785Z,1023.41
2023-03-01T11:36:16.982Z,1023.36
2023-03-01T11:37:16.806Z,1023.33
2023-03-01T11:38:16.815Z,1023.35
2023-03-01T11:39:16.820Z,1023.35
2023-03-01T11:40:16.830Z,1023.35
2023-03-01T11:41:16.869Z,1023.38
2023-03-01T11:42:19.410Z,1023.40
2023-03-01T11:43:17.016Z,1023.39
2023-03-01T11:44:16.877Z,1023.33
2023-03-01T11:45:16.893Z,1023.32
2023-03-01T11:46:16.983Z,1023.38
2023-03-01T11:47:16.988Z,1023.40
2023-03-01T11:48:16.920Z,1023.35
2023-03-01T11:49:16.934Z,1023.33
2023-03-01T11:50:16.954Z,1023.39
2023-03-01T11:51:16.973Z,1023.36
2023-03-01T11:52:16.974Z,1023.36
2023-03-01T11:53:16.990Z,1023.37
2023-03-01T11:54:16.984Z,1023.36
2023-03-01T11:55:16.997Z,1023.33
2023-03-01T11:56:17.080Z,1023.33
2023-03-01T11:57:17.018Z,1023.39
2023-03-01T11:58:17.045Z,1023.34
2023-03-01T11:59:17.044Z,1023.30
2023-03-01T12:00:17.050Z,1023.35
2023-03-01T12:01:17.148Z,1023.36
2023-03-01T12:02:17.128Z,1023.38
2023-03-01T12:03:17.083Z,1023.34
2023-03-01T12:04:17.131Z,1023.33
2023-03-01T12:05:17.107Z,1023.35
2023-03-01T12:06:17.116Z,1023.28